sensor_id;sensor_type;location;lat;lon;timestamp;temperature;humidity
21023;DHT22;10669;51.076;3.714;2022-12-24T00:01:01;11.30;99.90
21023;DHT22;10669;51.076;3.714;2022-12-24T00:03:30;11.30;99.90
21023;DHT22;10669;51.076;3.714;2022-12-24T00:05:58;11.40;99.90
21023;DHT22;10669;51.076;3.714;2022-12-24T00:08:30;11.50;99.90
21023;DHT22;10669;51.076;3.714;2022-12-24T00:10:58;11.80;99.90
21023;DHT22;10669;51.076;3.714;2022-12-24T00:13:26;11.60;99.90
21023;DHT22;10669;51.076;3.714;2022-12-24T00:15:52;12.10;99.90
21023;DHT22;10669;51.076;3.714;2022-12-24T00:18:18;11.50;99.90
21023;DHT22;10669;51.076;3.714;2022-12-24T00:20:53;12.00;99.90
21023;DHT22;10669;51.076;3.714;2022-12-24T00:23:22;11.50;99.90
21023;DHT22;10669;51.076;3.714;2022-12-24T00:25:48;11.80;99.90
21023;DHT22;10669;51.076;3.714;2022-12-24T00:28:14;11.50;99.90
21023;DHT22;10669;51.076;3.714;2022-12-24T00:30:42;11.50;99.90
21023;DHT22;10669;51.076;3.714;2022-12-24T00:33:08;11.60;99.90
21023;DHT22;10669;51.076;3.714;2022-12-24T00:35:38;11.50;99.90
21023;DHT22;10669;51.076;3.714;2022-12-24T00:38:07;11.50;99.90
21023;DHT22;10669;51.076;3.714;2022-12-24T00:40:33;11.50;99.90
21023;DHT22;10669;51.076;3.714;2022-12-24T00:43:02;11.70;99.90
21023;DHT22;10669;51.076;3.714;2022-12-24T00:45:29;11.50;99.90
21023;DHT22;10669;51.076;3.714;2022-12-24T00:47:57;11.90;99.90
21023;DHT22;10669;51.076;3.714;2022-12-24T00:50:26;11.70;99.90
21023;DHT22;10669;51.076;3.714;2022-12-24T00:52:52;11.70;99.90
21023;DHT22;10669;51.076;3.714;2022-12-24T00:55:18;11.60;99.90
21023;DHT22;10669;51.076;3.714;2022-12-24T00:57:44;12.30;99.90
21023;DHT22;10669;51.076;3.714;2022-12-24T01:00:12;11.60;99.90
21023;DHT22;10669;51.076;3.714;2022-12-24T01:02:43;11.60;99.90
21023;DHT22;10669;51.076;3.714;2022-12-24T01:05:10;11.50;99.90
21023;DHT22;10669;51.076;3.714;2022-12-24T01:07:43;12.00;99.90
21023;DHT22;10669;51.076;3.714;2022-12-24T01:10:13;11.40;99.90
21023;DHT22;10669;51.076;3.714;2022-12-24T01:12:42;11.70;99.90
21023;DHT22;10669;51.076;3.714;2022-12-24T01:15:14;11.40;99.90
21023;DHT22;10669;51.076;3.714;2022-12-24T01:17:43;11.30;99.90
21023;DHT22;10669;51.076;3.714;2022-12-24T01:20:14;11.30;99.90
21023;DHT22;10669;51.076;3.714;2022-12-24T01:22:41;11.40;99.90
21023;DHT22;10669;51.076;3.714;2022-12-24T01:25:13;11.30;99.90
21023;DHT22;10669;51.076;3.714;2022-12-24T01:27:40;11.80;99.90
21023;DHT22;10669;51.076;3.714;2022-12-24T01:30:10;11.50;99.90
21023;DHT22;10669;51.076;3.714;2022-12-24T01:32:38;11.50;99.90
21023;DHT22;10669;51.076;3.714;2022-12-24T01:35:07;11.50;99.90
21023;DHT22;10669;51.076;3.714;2022-12-24T01:37:37;11.50;99.90
21023;DHT22;10669;51.076;3.714;2022-12-24T01:40:05;11.50;99.90
21023;DHT22;10669;51.076;3.714;2022-12-24T01:42:52;11.50;99.90
21023;DHT22;10669;51.076;3.714;2022-12-24T01:48:18;11.50;99.90
21023;DHT22;10669;51.076;3.714;2022-12-24T01:51:18;11.30;99.90
21023;DHT22;10669;51.076;3.714;2022-12-24T01:54:05;11.40;99.90
21023;DHT22;10669;51.076;3.714;2022-12-24T01:56:38;11.40;99.90
21023;DHT22;10669;51.076;3.714;2022-12-24T01:59:14;11.40;99.90
21023;DHT22;10669;51.076;3.714;2022-12-24T02:01:42;11.40;99.90
21023;DHT22;10669;51.076;3.714;2022-12-24T02:06:59;11.40;99.90
21023;DHT22;10669;51.076;3.714;2022-12-24T02:09:26;11.30;99.90
21023;DHT22;10669;51.076;3.714;2022-12-24T02:11:56;11.30;99.90
21023;DHT22;10669;51.076;3.714;2022-12-24T02:14:25;11.30;99.90
21023;DHT22;10669;51.076;3.714;2022-12-24T02:17:23;11.30;99.90
21023;DHT22;10669;51.076;3.714;2022-12-24T02:20:06;11.30;99.90
21023;DHT22;10669;51.076;3.714;2022-12-24T02:25:36;11.30;99.90
21023;DHT22;10669;51.076;3.714;2022-12-24T02:28:33;11.30;99.90
21023;DHT22;10669;51.076;3.714;2022-12-24T02:31:19;11.30;99.90
21023;DHT22;10669;51.076;3.714;2022-12-24T02:34:27;11.30;99.90
21023;DHT22;10669;51.076;3.714;2022-12-24T02:37:11;11.40;99.90
21023;DHT22;10669;51.076;3.714;2022-12-24T02:39:54;11.30;99.90
21023;DHT22;10669;51.076;3.714;2022-12-24T02:42:26;11.40;99.90
21023;DHT22;10669;51.076;3.714;2022-12-24T02:45:14;11.70;99.90
21023;DHT22;10669;51.076;3.714;2022-12-24T02:47:44;11.20;99.90
21023;DHT22;10669;51.076;3.714;2022-12-24T02:50:16;11.20;99.90
21023;DHT22;10669;51.076;3.714;2022-12-24T02:52:44;11.00;99.90
21023;DHT22;10669;51.076;3.714;2022-12-24T02:55:44;11.00;99.90
21023;DHT22;10669;51.076;3.714;2022-12-24T03:01:11;11.30;99.90
21023;DHT22;10669;51.076;3.714;2022-12-24T03:09:11;11.00;99.90
21023;DHT22;10669;51.076;3.714;2022-12-24T03:11:45;11.10;99.90
21023;DHT22;10669;51.076;3.714;2022-12-24T03:14:14;11.10;99.90
21023;DHT22;10669;51.076;3.714;2022-12-24T03:16:44;11.00;99.90
21023;DHT22;10669;51.076;3.714;2022-12-24T03:19:10;11.40;99.90
21023;DHT22;10669;51.076;3.714;2022-12-24T03:21:38;11.00;99.90
21023;DHT22;10669;51.076;3.714;2022-12-24T03:24:10;11.00;99.90
21023;DHT22;10669;51.076;3.714;2022-12-24T03:26:39;11.40;99.90
21023;DHT22;10669;51.076;3.714;2022-12-24T03:29:06;10.80;99.90
21023;DHT22;10669;51.076;3.714;2022-12-24T03:31:46;10.90;99.90
21023;DHT22;10669;51.076;3.714;2022-12-24T03:34:13;10.80;99.90
21023;DHT22;10669;51.076;3.714;2022-12-24T03:36:41;11.60;99.90
21023;DHT22;10669;51.076;3.714;2022-12-24T03:39:09;10.80;99.90
21023;DHT22;10669;51.076;3.714;2022-12-24T03:41:38;11.30;99.90
21023;DHT22;10669;51.076;3.714;2022-12-24T03:44:05;10.90;99.90
21023;DHT22;10669;51.076;3.714;2022-12-24T03:46:37;10.70;99.90
21023;DHT22;10669;51.076;3.714;2022-12-24T03:49:03;10.80;99.90
21023;DHT22;10669;51.076;3.714;2022-12-24T03:51:29;10.90;99.90
21023;DHT22;10669;51.076;3.714;2022-12-24T03:53:58;10.80;99.90
21023;DHT22;10669;51.076;3.714;2022-12-24T03:56:24;11.10;99.90
21023;DHT22;10669;51.076;3.714;2022-12-24T03:58:52;11.10;99.90
21023;DHT22;10669;51.076;3.714;2022-12-24T04:01:21;11.10;99.90
21023;DHT22;10669;51.076;3.714;2022-12-24T04:03:47;10.80;99.90
21023;DHT22;10669;51.076;3.714;2022-12-24T04:06:15;10.70;99.90
21023;DHT22;10669;51.076;3.714;2022-12-24T04:08:44;10.80;99.90
21023;DHT22;10669;51.076;3.714;2022-12-24T04:11:12;10.60;99.90
21023;DHT22;10669;51.076;3.714;2022-12-24T04:13:40;10.80;99.90
21023;DHT22;10669;51.076;3.714;2022-12-24T04:16:14;10.80;99.90
21023;DHT22;10669;51.076;3.714;2022-12-24T04:18:44;10.80;99.90
21023;DHT22;10669;51.076;3.714;2022-12-24T04:21:12;10.80;99.90
21023;DHT22;10669;51.076;3.714;2022-12-24T04:23:40;11.30;99.90
21023;DHT22;10669;51.076;3.714;2022-12-24T04:26:07;10.80;99.90
21023;DHT22;10669;51.076;3.714;2022-12-24T04:28:37;10.80;99.90
21023;DHT22;10669;51.076;3.714;2022-12-24T04:31:11;10.90;99.90
21023;DHT22;10669;51.076;3.714;2022-12-24T04:33:38;11.10;99.90
21023;DHT22;10669;51.076;3.714;2022-12-24T04:36:06;11.30;99.90
21023;DHT22;10669;51.076;3.714;2022-12-24T04:38:34;10.90;99.90
21023;DHT22;10669;51.076;3.714;2022-12-24T04:41:06;11.10;99.90
21023;DHT22;10669;51.076;3.714;2022-12-24T04:43:35;10.80;99.90
21023;DHT22;10669;51.076;3.714;2022-12-24T04:46:15;10.70;99.90
21023;DHT22;10669;51.076;3.714;2022-12-24T04:48:46;10.70;99.90
21023;DHT22;10669;51.076;3.714;2022-12-24T04:51:13;11.20;99.90
21023;DHT22;10669;51.076;3.714;2022-12-24T04:53:40;10.70;99.90
21023;DHT22;10669;51.076;3.714;2022-12-24T04:56:19;11.20;99.90
21023;DHT22;10669;51.076;3.714;2022-12-24T04:58:45;10.90;99.90
21023;DHT22;10669;51.076;3.714;2022-12-24T05:01:19;10.90;99.90
21023;DHT22;10669;51.076;3.714;2022-12-24T05:03:46;10.90;99.90
21023;DHT22;10669;51.076;3.714;2022-12-24T05:06:21;10.80;99.90
21023;DHT22;10669;51.076;3.714;2022-12-24T05:08:53;10.80;99.90
21023;DHT22;10669;51.076;3.714;2022-12-24T05:11:20;10.70;99.90
21023;DHT22;10669;51.076;3.714;2022-12-24T05:13:48;11.00;99.90
21023;DHT22;10669;51.076;3.714;2022-12-24T05:16:16;10.70;99.90
21023;DHT22;10669;51.076;3.714;2022-12-24T05:18:48;11.00;99.90
21023;DHT22;10669;51.076;3.714;2022-12-24T05:21:22;10.80;99.90
21023;DHT22;10669;51.076;3.714;2022-12-24T05:23:51;10.80;99.90
21023;DHT22;10669;51.076;3.714;2022-12-24T05:26:43;10.80;99.90
21023;DHT22;10669;51.076;3.714;2022-12-24T05:29:11;10.90;99.90
21023;DHT22;10669;51.076;3.714;2022-12-24T05:31:38;10.80;99.90
21023;DHT22;10669;51.076;3.714;2022-12-24T05:34:06;10.90;99.90
21023;DHT22;10669;51.076;3.714;2022-12-24T05:36:34;10.90;99.90
21023;DHT22;10669;51.076;3.714;2022-12-24T05:39:02;11.10;99.90
21023;DHT22;10669;51.076;3.714;2022-12-24T05:41:28;11.00;99.90
21023;DHT22;10669;51.076;3.714;2022-12-24T05:43:57;11.00;99.90
21023;DHT22;10669;51.076;3.714;2022-12-24T05:46:26;11.00;99.90
21023;DHT22;10669;51.076;3.714;2022-12-24T05:48:55;11.30;99.90
21023;DHT22;10669;51.076;3.714;2022-12-24T05:51:22;11.20;99.90
21023;DHT22;10669;51.076;3.714;2022-12-24T05:53:51;11.20;99.90
21023;DHT22;10669;51.076;3.714;2022-12-24T05:56:21;11.10;99.90
21023;DHT22;10669;51.076;3.714;2022-12-24T05:58:51;11.10;99.90
21023;DHT22;10669;51.076;3.714;2022-12-24T06:01:19;11.60;99.90
21023;DHT22;10669;51.076;3.714;2022-12-24T06:03:45;11.40;99.90
21023;DHT22;10669;51.076;3.714;2022-12-24T06:06:19;11.20;99.90
21023;DHT22;10669;51.076;3.714;2022-12-24T06:08:49;11.20;99.90
21023;DHT22;10669;51.076;3.714;2022-12-24T06:11:17;11.20;99.90
21023;DHT22;10669;51.076;3.714;2022-12-24T06:13:45;11.40;99.90
21023;DHT22;10669;51.076;3.714;2022-12-24T06:16:16;11.40;99.90
21023;DHT22;10669;51.076;3.714;2022-12-24T06:18:44;11.20;99.90
21023;DHT22;10669;51.076;3.714;2022-12-24T06:21:13;11.20;99.90
21023;DHT22;10669;51.076;3.714;2022-12-24T06:23:41;11.20;99.90
21023;DHT22;10669;51.076;3.714;2022-12-24T06:26:11;11.30;99.90
21023;DHT22;10669;51.076;3.714;2022-12-24T06:28:38;11.10;99.90
21023;DHT22;10669;51.076;3.714;2022-12-24T06:31:05;11.50;99.90
21023;DHT22;10669;51.076;3.714;2022-12-24T06:33:33;11.00;99.90
21023;DHT22;10669;51.076;3.714;2022-12-24T06:36:05;11.20;99.90
21023;DHT22;10669;51.076;3.714;2022-12-24T06:38:32;11.00;99.90
21023;DHT22;10669;51.076;3.714;2022-12-24T06:41:05;11.00;99.90
21023;DHT22;10669;51.076;3.714;2022-12-24T06:43:34;11.00;99.90
21023;DHT22;10669;51.076;3.714;2022-12-24T06:46:11;11.00;99.90
21023;DHT22;10669;51.076;3.714;2022-12-24T06:48:37;11.30;99.90
21023;DHT22;10669;51.076;3.714;2022-12-24T06:51:06;10.90;99.90
21023;DHT22;10669;51.076;3.714;2022-12-24T06:53:33;10.80;99.90
21023;DHT22;10669;51.076;3.714;2022-12-24T06:56:12;10.90;99.90
21023;DHT22;10669;51.076;3.714;2022-12-24T06:58:40;10.90;99.90
21023;DHT22;10669;51.076;3.714;2022-12-24T07:01:13;10.80;99.90
21023;DHT22;10669;51.076;3.714;2022-12-24T07:03:41;11.30;99.90
21023;DHT22;10669;51.076;3.714;2022-12-24T07:06:25;10.80;99.90
21023;DHT22;10669;51.076;3.714;2022-12-24T07:08:51;10.80;99.90
21023;DHT22;10669;51.076;3.714;2022-12-24T07:11:17;10.80;99.90
21023;DHT22;10669;51.076;3.714;2022-12-24T07:13:43;10.90;99.90
21023;DHT22;10669;51.076;3.714;2022-12-24T07:16:09;10.80;99.90
21023;DHT22;10669;51.076;3.714;2022-12-24T07:18:34;10.80;99.90
21023;DHT22;10669;51.076;3.714;2022-12-24T07:21:03;10.80;99.90
21023;DHT22;10669;51.076;3.714;2022-12-24T07:23:30;10.60;99.90
21023;DHT22;10669;51.076;3.714;2022-12-24T07:26:02;11.00;99.90
21023;DHT22;10669;51.076;3.714;2022-12-24T07:28:29;10.60;99.90
21023;DHT22;10669;51.076;3.714;2022-12-24T07:30:57;10.60;99.90
21023;DHT22;10669;51.076;3.714;2022-12-24T07:33:25;10.80;99.90
21023;DHT22;10669;51.076;3.714;2022-12-24T07:36:01;10.60;99.90
21023;DHT22;10669;51.076;3.714;2022-12-24T07:38:28;10.70;99.90
21023;DHT22;10669;51.076;3.714;2022-12-24T07:40:57;10.70;99.90
21023;DHT22;10669;51.076;3.714;2022-12-24T07:43:25;10.70;99.90
21023;DHT22;10669;51.076;3.714;2022-12-24T07:45:57;10.80;99.90
21023;DHT22;10669;51.076;3.714;2022-12-24T07:48:25;11.30;99.90
21023;DHT22;10669;51.076;3.714;2022-12-24T07:50:54;11.00;99.90
21023;DHT22;10669;51.076;3.714;2022-12-24T07:53:22;11.10;99.90
21023;DHT22;10669;51.076;3.714;2022-12-24T07:55:54;11.30;99.90
21023;DHT22;10669;51.076;3.714;2022-12-24T07:58:23;11.00;99.90
21023;DHT22;10669;51.076;3.714;2022-12-24T08:00:56;11.00;99.90
21023;DHT22;10669;51.076;3.714;2022-12-24T08:03:26;11.10;99.90
21023;DHT22;10669;51.076;3.714;2022-12-24T08:05:53;10.90;99.90
21023;DHT22;10669;51.076;3.714;2022-12-24T08:08:20;11.00;99.90
21023;DHT22;10669;51.076;3.714;2022-12-24T08:10:48;11.00;99.90
21023;DHT22;10669;51.076;3.714;2022-12-24T08:13:16;11.40;99.90
21023;DHT22;10669;51.076;3.714;2022-12-24T08:15:44;11.00;99.90
21023;DHT22;10669;51.076;3.714;2022-12-24T08:18:12;11.00;99.90
21023;DHT22;10669;51.076;3.714;2022-12-24T08:20:40;11.00;99.90
21023;DHT22;10669;51.076;3.714;2022-12-24T08:23:09;11.10;99.90
21023;DHT22;10669;51.076;3.714;2022-12-24T08:25:40;11.10;99.90
21023;DHT22;10669;51.076;3.714;2022-12-24T08:28:06;11.10;99.90
21023;DHT22;10669;51.076;3.714;2022-12-24T08:30:32;11.10;99.90
21023;DHT22;10669;51.076;3.714;2022-12-24T08:33:00;11.20;99.90
21023;DHT22;10669;51.076;3.714;2022-12-24T08:35:26;11.20;99.90
21023;DHT22;10669;51.076;3.714;2022-12-24T08:37:53;10.90;99.90
21023;DHT22;10669;51.076;3.714;2022-12-24T08:40:20;10.90;99.90
21023;DHT22;10669;51.076;3.714;2022-12-24T08:42:47;10.90;99.90
21023;DHT22;10669;51.076;3.714;2022-12-24T08:45:15;11.30;99.90
21023;DHT22;10669;51.076;3.714;2022-12-24T08:47:42;11.10;99.90
21023;DHT22;10669;51.076;3.714;2022-12-24T08:50:09;11.00;99.90
21023;DHT22;10669;51.076;3.714;2022-12-24T08:52:38;11.00;99.90
21023;DHT22;10669;51.076;3.714;2022-12-24T08:55:04;11.10;99.90
21023;DHT22;10669;51.076;3.714;2022-12-24T08:57:35;11.20;99.90
21023;DHT22;10669;51.076;3.714;2022-12-24T09:00:08;11.30;99.90
21023;DHT22;10669;51.076;3.714;2022-12-24T09:02:35;11.30;99.90
21023;DHT22;10669;51.076;3.714;2022-12-24T09:05:00;11.30;99.90
21023;DHT22;10669;51.076;3.714;2022-12-24T09:07:26;11.30;99.90
21023;DHT22;10669;51.076;3.714;2022-12-24T09:09:52;11.40;99.90
21023;DHT22;10669;51.076;3.714;2022-12-24T09:12:18;11.70;99.90
21023;DHT22;10669;51.076;3.714;2022-12-24T09:14:49;11.30;99.90
21023;DHT22;10669;51.076;3.714;2022-12-24T09:17:17;11.40;99.90
21023;DHT22;10669;51.076;3.714;2022-12-24T09:19:42;11.40;99.90
21023;DHT22;10669;51.076;3.714;2022-12-24T09:22:08;11.30;99.90
21023;DHT22;10669;51.076;3.714;2022-12-24T09:24:34;11.40;99.90
21023;DHT22;10669;51.076;3.714;2022-12-24T09:27:02;11.50;99.90
21023;DHT22;10669;51.076;3.714;2022-12-24T09:29:29;11.60;99.90
21023;DHT22;10669;51.076;3.714;2022-12-24T09:31:55;11.60;99.90
21023;DHT22;10669;51.076;3.714;2022-12-24T09:34:25;11.50;99.90
21023;DHT22;10669;51.076;3.714;2022-12-24T09:36:50;11.50;99.90
21023;DHT22;10669;51.076;3.714;2022-12-24T09:39:19;11.40;99.90
21023;DHT22;10669;51.076;3.714;2022-12-24T09:47:43;11.40;99.90
21023;DHT22;10669;51.076;3.714;2022-12-24T09:53:03;11.30;99.90
21023;DHT22;10669;51.076;3.714;2022-12-24T09:55:35;11.30;99.90
21023;DHT22;10669;51.076;3.714;2022-12-24T09:58:04;11.40;99.90
21023;DHT22;10669;51.076;3.714;2022-12-24T10:00:36;11.40;99.90
21023;DHT22;10669;51.076;3.714;2022-12-24T10:03:13;11.40;99.90
21023;DHT22;10669;51.076;3.714;2022-12-24T10:05:47;11.50;99.90
21023;DHT22;10669;51.076;3.714;2022-12-24T10:08:35;11.70;99.90
21023;DHT22;10669;51.076;3.714;2022-12-24T10:14:18;11.80;99.90
21023;DHT22;10669;51.076;3.714;2022-12-24T10:24:46;11.70;99.90
21023;DHT22;10669;51.076;3.714;2022-12-24T10:27:21;11.80;99.90
21023;DHT22;10669;51.076;3.714;2022-12-24T10:29:53;11.70;99.90
21023;DHT22;10669;51.076;3.714;2022-12-24T10:32:34;12.10;99.90
21023;DHT22;10669;51.076;3.714;2022-12-24T10:37:49;11.90;99.90
21023;DHT22;10669;51.076;3.714;2022-12-24T10:40:39;11.90;99.90
21023;DHT22;10669;51.076;3.714;2022-12-24T10:43:17;11.90;99.90
21023;DHT22;10669;51.076;3.714;2022-12-24T10:45:47;12.20;99.90
21023;DHT22;10669;51.076;3.714;2022-12-24T10:48:29;12.00;99.90
21023;DHT22;10669;51.076;3.714;2022-12-24T10:51:05;12.10;99.90
21023;DHT22;10669;51.076;3.714;2022-12-24T10:56:41;12.50;99.90
21023;DHT22;10669;51.076;3.714;2022-12-24T10:59:27;12.50;97.60
21023;DHT22;10669;51.076;3.714;2022-12-24T11:01:56;12.70;98.00
21023;DHT22;10669;51.076;3.714;2022-12-24T11:04:29;12.70;95.40
21023;DHT22;10669;51.076;3.714;2022-12-24T11:07:04;12.70;95.90
21023;DHT22;10669;51.076;3.714;2022-12-24T11:09:36;12.70;96.60
21023;DHT22;10669;51.076;3.714;2022-12-24T11:12:27;12.50;93.60
21023;DHT22;10669;51.076;3.714;2022-12-24T11:15:23;12.30;97.60
21023;DHT22;10669;51.076;3.714;2022-12-24T11:17:55;12.30;99.90
21023;DHT22;10669;51.076;3.714;2022-12-24T11:20:31;12.40;99.90
21023;DHT22;10669;51.076;3.714;2022-12-24T11:23:01;12.40;98.30
21023;DHT22;10669;51.076;3.714;2022-12-24T11:25:29;12.40;99.80
21023;DHT22;10669;51.076;3.714;2022-12-24T11:28:12;12.30;99.30
21023;DHT22;10669;51.076;3.714;2022-12-24T11:30:56;12.30;99.90
21023;DHT22;10669;51.076;3.714;2022-12-24T11:33:22;12.20;99.90
21023;DHT22;10669;51.076;3.714;2022-12-24T11:35:56;12.20;99.90
21023;DHT22;10669;51.076;3.714;2022-12-24T11:38:25;12.20;99.90
21023;DHT22;10669;51.076;3.714;2022-12-24T11:41:02;12.10;99.90
21023;DHT22;10669;51.076;3.714;2022-12-24T11:43:36;12.20;99.90
21023;DHT22;10669;51.076;3.714;2022-12-24T11:46:18;12.20;99.90
21023;DHT22;10669;51.076;3.714;2022-12-24T11:48:45;12.60;99.90
21023;DHT22;10669;51.076;3.714;2022-12-24T11:51:25;12.30;99.90
21023;DHT22;10669;51.076;3.714;2022-12-24T11:54:00;12.30;99.90
21023;DHT22;10669;51.076;3.714;2022-12-24T11:56:36;12.30;99.90
21023;DHT22;10669;51.076;3.714;2022-12-24T11:59:25;12.30;99.90
21023;DHT22;10669;51.076;3.714;2022-12-24T12:04:42;12.50;99.90
21023;DHT22;10669;51.076;3.714;2022-12-24T12:07:23;12.90;99.90
21023;DHT22;10669;51.076;3.714;2022-12-24T12:09:52;12.40;99.90
21023;DHT22;10669;51.076;3.714;2022-12-24T12:12:26;12.30;99.90
21023;DHT22;10669;51.076;3.714;2022-12-24T12:15:13;13.20;99.90
21023;DHT22;10669;51.076;3.714;2022-12-24T12:18:33;12.10;99.90
21023;DHT22;10669;51.076;3.714;2022-12-24T12:21:08;11.90;99.90
21023;DHT22;10669;51.076;3.714;2022-12-24T12:23:59;11.90;99.90
21023;DHT22;10669;51.076;3.714;2022-12-24T12:26:29;12.10;99.90
21023;DHT22;10669;51.076;3.714;2022-12-24T12:29:29;12.20;99.90
21023;DHT22;10669;51.076;3.714;2022-12-24T12:32:01;12.40;99.90
21023;DHT22;10669;51.076;3.714;2022-12-24T12:34:43;12.40;99.90
21023;DHT22;10669;51.076;3.714;2022-12-24T12:37:39;12.40;99.90
21023;DHT22;10669;51.076;3.714;2022-12-24T12:40:14;12.50;99.90
21023;DHT22;10669;51.076;3.714;2022-12-24T12:42:49;12.50;99.90
21023;DHT22;10669;51.076;3.714;2022-12-24T12:45:47;12.90;99.90
21023;DHT22;10669;51.076;3.714;2022-12-24T12:49:31;12.60;99.90
21023;DHT22;10669;51.076;3.714;2022-12-24T12:51:40;12.50;99.90
21023;DHT22;10669;51.076;3.714;2022-12-24T12:54:34;12.50;99.90
21023;DHT22;10669;51.076;3.714;2022-12-24T12:57:06;12.70;99.90
21023;DHT22;10669;51.076;3.714;2022-12-24T12:59:41;12.60;99.90
21023;DHT22;10669;51.076;3.714;2022-12-24T13:10:34;12.40;99.90
21023;DHT22;10669;51.076;3.714;2022-12-24T13:16:15;12.60;99.90
21023;DHT22;10669;51.076;3.714;2022-12-24T13:19:12;12.70;99.90
21023;DHT22;10669;51.076;3.714;2022-12-24T13:21:50;12.80;99.90
21023;DHT22;10669;51.076;3.714;2022-12-24T13:24:22;13.30;99.90
21023;DHT22;10669;51.076;3.714;2022-12-24T13:27:14;12.80;99.90
21023;DHT22;10669;51.076;3.714;2022-12-24T13:37:32;12.80;98.50
21023;DHT22;10669;51.076;3.714;2022-12-24T13:50:52;12.50;99.90
21023;DHT22;10669;51.076;3.714;2022-12-24T13:58:34;12.70;99.90
21023;DHT22;10669;51.076;3.714;2022-12-24T14:01:04;13.00;99.90
21023;DHT22;10669;51.076;3.714;2022-12-24T14:03:51;12.80;99.90
21023;DHT22;10669;51.076;3.714;2022-12-24T14:06:24;12.80;98.90
21023;DHT22;10669;51.076;3.714;2022-12-24T14:14:38;12.80;99.90
21023;DHT22;10669;51.076;3.714;2022-12-24T14:17:27;12.80;98.90
21023;DHT22;10669;51.076;3.714;2022-12-24T14:19:58;12.80;99.70
21023;DHT22;10669;51.076;3.714;2022-12-24T14:24:57;12.70;98.70
21023;DHT22;10669;51.076;3.714;2022-12-24T14:29:59;12.60;99.90
21023;DHT22;10669;51.076;3.714;2022-12-24T14:32:37;12.80;99.90
21023;DHT22;10669;51.076;3.714;2022-12-24T14:35:29;12.70;99.90
21023;DHT22;10669;51.076;3.714;2022-12-24T14:38:03;12.80;99.40
21023;DHT22;10669;51.076;3.714;2022-12-24T14:40:37;12.70;98.30
21023;DHT22;10669;51.076;3.714;2022-12-24T14:43:24;12.80;98.60
21023;DHT22;10669;51.076;3.714;2022-12-24T14:46:22;12.80;99.90
21023;DHT22;10669;51.076;3.714;2022-12-24T14:48:56;12.90;98.10
21023;DHT22;10669;51.076;3.714;2022-12-24T14:51:58;12.90;96.10
21023;DHT22;10669;51.076;3.714;2022-12-24T14:54:37;12.90;96.30
21023;DHT22;10669;51.076;3.714;2022-12-24T14:59:50;12.80;97.00
21023;DHT22;10669;51.076;3.714;2022-12-24T15:02:23;12.80;96.90
21023;DHT22;10669;51.076;3.714;2022-12-24T15:05:24;12.70;96.60
21023;DHT22;10669;51.076;3.714;2022-12-24T15:07:57;12.60;99.50
21023;DHT22;10669;51.076;3.714;2022-12-24T15:10:49;12.50;98.80
21023;DHT22;10669;51.076;3.714;2022-12-24T15:15:47;12.30;99.90
21023;DHT22;10669;51.076;3.714;2022-12-24T15:18:17;12.30;99.90
21023;DHT22;10669;51.076;3.714;2022-12-24T15:20:46;12.30;99.90
21023;DHT22;10669;51.076;3.714;2022-12-24T15:23:30;12.10;99.90
21023;DHT22;10669;51.076;3.714;2022-12-24T15:28:38;12.40;99.90
21023;DHT22;10669;51.076;3.714;2022-12-24T15:31:11;12.40;99.90
21023;DHT22;10669;51.076;3.714;2022-12-24T15:33:37;12.40;99.90
21023;DHT22;10669;51.076;3.714;2022-12-24T15:36:04;12.40;99.90
21023;DHT22;10669;51.076;3.714;2022-12-24T15:38:34;12.40;99.90
21023;DHT22;10669;51.076;3.714;2022-12-24T15:41:07;12.40;99.90
21023;DHT22;10669;51.076;3.714;2022-12-24T15:43:40;12.60;99.90
21023;DHT22;10669;51.076;3.714;2022-12-24T15:46:06;12.50;99.90
21023;DHT22;10669;51.076;3.714;2022-12-24T15:48:32;12.40;97.00
21023;DHT22;10669;51.076;3.714;2022-12-24T15:51:01;12.40;98.00
21023;DHT22;10669;51.076;3.714;2022-12-24T15:53:36;12.40;98.60
21023;DHT22;10669;51.076;3.714;2022-12-24T15:56:13;12.40;97.80
21023;DHT22;10669;51.076;3.714;2022-12-24T15:58:51;12.40;98.50
21023;DHT22;10669;51.076;3.714;2022-12-24T16:01:23;12.40;99.10
21023;DHT22;10669;51.076;3.714;2022-12-24T16:06:16;12.50;96.30
21023;DHT22;10669;51.076;3.714;2022-12-24T16:08:42;12.60;98.30
21023;DHT22;10669;51.076;3.714;2022-12-24T16:11:18;12.70;96.40
21023;DHT22;10669;51.076;3.714;2022-12-24T16:16:39;12.70;92.90
21023;DHT22;10669;51.076;3.714;2022-12-24T16:19:14;12.70;93.90
21023;DHT22;10669;51.076;3.714;2022-12-24T16:21:41;12.60;94.00
21023;DHT22;10669;51.076;3.714;2022-12-24T16:26:40;12.60;94.30
21023;DHT22;10669;51.076;3.714;2022-12-24T16:29:06;12.50;94.40
21023;DHT22;10669;51.076;3.714;2022-12-24T16:31:58;12.40;94.60
21023;DHT22;10669;51.076;3.714;2022-12-24T16:34:26;12.40;97.80
21023;DHT22;10669;51.076;3.714;2022-12-24T16:36:52;12.30;97.10
21023;DHT22;10669;51.076;3.714;2022-12-24T16:41:54;12.30;96.80
21023;DHT22;10669;51.076;3.714;2022-12-24T16:44:40;12.30;96.20
21023;DHT22;10669;51.076;3.714;2022-12-24T16:47:10;12.10;95.70
21023;DHT22;10669;51.076;3.714;2022-12-24T16:49:37;12.10;97.90
21023;DHT22;10669;51.076;3.714;2022-12-24T16:52:13;12.00;99.20
21023;DHT22;10669;51.076;3.714;2022-12-24T16:54:39;11.90;99.50
21023;DHT22;10669;51.076;3.714;2022-12-24T16:57:05;11.90;99.90
21023;DHT22;10669;51.076;3.714;2022-12-24T16:59:30;11.80;99.90
21023;DHT22;10669;51.076;3.714;2022-12-24T17:01:57;12.00;99.90
21023;DHT22;10669;51.076;3.714;2022-12-24T17:04:22;11.70;99.90
21023;DHT22;10669;51.076;3.714;2022-12-24T17:06:48;11.70;99.90
21023;DHT22;10669;51.076;3.714;2022-12-24T17:09:15;11.80;99.90
21023;DHT22;10669;51.076;3.714;2022-12-24T17:11:40;11.80;99.90
21023;DHT22;10669;51.076;3.714;2022-12-24T17:14:06;11.80;99.90
21023;DHT22;10669;51.076;3.714;2022-12-24T17:16:31;11.80;99.90
21023;DHT22;10669;51.076;3.714;2022-12-24T17:18:57;11.70;99.90
21023;DHT22;10669;51.076;3.714;2022-12-24T17:21:22;11.70;99.90
21023;DHT22;10669;51.076;3.714;2022-12-24T17:23:48;11.70;99.90
21023;DHT22;10669;51.076;3.714;2022-12-24T17:26:14;11.70;99.90
21023;DHT22;10669;51.076;3.714;2022-12-24T17:28:41;11.70;99.90
21023;DHT22;10669;51.076;3.714;2022-12-24T17:31:10;11.60;99.90
21023;DHT22;10669;51.076;3.714;2022-12-24T17:33:36;11.50;99.90
21023;DHT22;10669;51.076;3.714;2022-12-24T17:36:02;11.40;99.90
21023;DHT22;10669;51.076;3.714;2022-12-24T17:38:28;11.40;99.90
21023;DHT22;10669;51.076;3.714;2022-12-24T17:41:09;11.40;99.90
21023;DHT22;10669;51.076;3.714;2022-12-24T17:43:35;11.30;99.90
21023;DHT22;10669;51.076;3.714;2022-12-24T17:46:05;11.50;99.90
21023;DHT22;10669;51.076;3.714;2022-12-24T17:48:30;11.30;99.90
21023;DHT22;10669;51.076;3.714;2022-12-24T17:50:56;11.20;99.90